createdAt,value
2019-01-09T00:00:48.503Z,3.50
2019-01-09T00:03:20.724Z,3.50
2019-01-09T00:05:49.987Z,3.50
2019-01-09T00:08:19.252Z,3.50
2019-01-09T00:10:48.449Z,3.50
2019-01-09T00:13:17.801Z,3.50
2019-01-09T00:15:46.947Z,3.50
2019-01-09T00:18:16.094Z,3.50
2019-01-09T00:20:45.158Z,3.60
2019-01-09T00:23:14.339Z,3.60
2019-01-09T00:25:43.392Z,3.60
2019-01-09T00:28:12.547Z,3.50
2019-01-09T00:30:41.755Z,3.50
2019-01-09T00:33:10.892Z,3.40
2019-01-09T00:35:40.048Z,3.40
2019-01-09T00:38:09.180Z,3.30
2019-01-09T00:40:38.311Z,3.30
2019-01-09T00:43:07.550Z,3.20
2019-01-09T00:45:36.648Z,3.20
2019-01-09T00:48:05.762Z,3.10
2019-01-09T00:50:34.960Z,3.10
2019-01-09T00:53:04.030Z,3.10
2019-01-09T00:55:33.272Z,3.00
2019-01-09T00:58:02.353Z,3.00
2019-01-09T01:00:31.520Z,3.00
2019-01-09T01:03:44.992Z,3.00
2019-01-09T01:06:44.774Z,2.90
2019-01-09T01:10:06.038Z,2.90
2019-01-09T01:13:31.698Z,2.90
2019-01-09T01:16:49.476Z,2.80
2019-01-09T01:19:58.185Z,2.80
2019-01-09T01:23:31.805Z,2.80
2019-01-09T01:26:26.019Z,2.70
2019-01-09T01:29:29.666Z,2.80
2019-01-09T01:32:30.068Z,2.80
2019-01-09T01:35:27.583Z,2.80
2019-01-09T01:38:42.134Z,2.80
2019-01-09T01:41:43.784Z,2.80
2019-01-09T01:44:41.763Z,2.90
2019-01-09T01:47:56.647Z,2.90
2019-01-09T01:50:57.413Z,2.90
2019-01-09T01:53:55.096Z,2.80
2019-01-09T01:57:08.373Z,2.90
2019-01-09T01:59:49.263Z,2.80
2019-01-09T02:02:54.086Z,2.90
2019-01-09T02:05:48.512Z,2.90
2019-01-09T02:09:08.397Z,2.90
2019-01-09T02:12:00.258Z,2.90
2019-01-09T02:15:03.523Z,2.90
2019-01-09T02:18:02.599Z,2.90
2019-01-09T02:21:07.137Z,2.90
2019-01-09T02:24:17.571Z,2.90
2019-01-09T02:27:17.557Z,2.90
2019-01-09T02:30:21.853Z,2.90
2019-01-09T02:32:50.854Z,2.90
2019-01-09T02:35:19.930Z,2.90
2019-01-09T02:37:49.124Z,2.90
2019-01-09T02:40:18.268Z,2.90
2019-01-09T02:42:47.395Z,2.90
2019-01-09T02:45:16.531Z,2.90
2019-01-09T02:47:47.830Z,2.80
2019-01-09T02:50:17.027Z,2.80
2019-01-09T02:52:46.204Z,2.90
2019-01-09T02:55:17.060Z,2.80
2019-01-09T02:57:56.239Z,2.80
2019-01-09T03:00:17.172Z,2.80
2019-01-09T03:02:46.401Z,2.80
2019-01-09T03:05:15.495Z,2.90
2019-01-09T03:07:44.762Z,2.90
2019-01-09T03:10:14.039Z,2.90
2019-01-09T03:12:43.140Z,2.90
2019-01-09T03:15:12.264Z,3.00
2019-01-09T03:17:44.483Z,3.00
2019-01-09T03:20:13.664Z,3.00
2019-01-09T03:22:42.855Z,3.00
2019-01-09T03:25:12.047Z,3.00
2019-01-09T03:27:43.505Z,3.00
2019-01-09T03:30:12.948Z,3.00
2019-01-09T03:32:44.804Z,3.00
2019-01-09T03:35:13.914Z,3.10
2019-01-09T03:37:45.595Z,3.10
2019-01-09T03:40:14.837Z,3.10
2019-01-09T03:42:46.769Z,3.10
2019-01-09T03:45:16.195Z,3.10
2019-01-09T03:47:45.433Z,3.00
2019-01-09T03:50:14.697Z,3.10
2019-01-09T03:52:46.696Z,3.10
2019-01-09T03:55:15.919Z,3.10
2019-01-09T03:57:45.258Z,3.10
2019-01-09T04:00:14.416Z,3.10
2019-01-09T04:02:43.933Z,3.20
2019-01-09T04:05:13.389Z,3.20
2019-01-09T04:07:44.833Z,3.20
2019-01-09T04:10:14.166Z,3.20
2019-01-09T04:12:43.622Z,3.30
2019-01-09T04:15:13.056Z,3.20
2019-01-09T04:17:42.270Z,3.20
2019-01-09T04:20:11.333Z,3.20
2019-01-09T04:22:40.395Z,3.20
2019-01-09T04:25:19.312Z,3.20
2019-01-09T04:27:48.377Z,3.20
2019-01-09T04:30:17.567Z,3.10
2019-01-09T04:32:46.884Z,3.10
2019-01-09T04:35:16.045Z,3.10
2019-01-09T04:37:48.231Z,3.10
2019-01-09T04:40:17.395Z,3.00
2019-01-09T04:42:49.414Z,3.00
2019-01-09T04:45:18.514Z,3.00
2019-01-09T04:47:49.618Z,2.90
2019-01-09T04:50:18.773Z,2.90
2019-01-09T04:52:47.826Z,2.90
2019-01-09T04:55:17.027Z,2.90
2019-01-09T04:57:48.471Z,2.90
2019-01-09T05:00:17.065Z,2.90
2019-01-09T05:02:46.193Z,2.90
2019-01-09T05:05:15.322Z,2.90
2019-01-09T05:07:44.331Z,2.90
2019-01-09T05:10:13.506Z,2.90
2019-01-09T05:12:42.592Z,2.90
2019-01-09T05:15:11.620Z,2.90
2019-01-09T05:17:40.808Z,2.90
2019-01-09T05:20:09.964Z,2.90
2019-01-09T05:22:38.946Z,2.90
2019-01-09T05:25:08.089Z,2.90
2019-01-09T05:27:46.225Z,2.90
2019-01-09T05:30:15.321Z,2.80
2019-01-09T05:32:44.560Z,2.80
2019-01-09T05:35:13.557Z,2.80
2019-01-09T05:37:42.728Z,2.80
2019-01-09T05:40:15.013Z,2.80
2019-01-09T05:42:44.105Z,2.80
2019-01-09T05:45:13.225Z,2.80
2019-01-09T05:47:42.559Z,2.80
2019-01-09T05:50:11.666Z,2.90
2019-01-09T05:52:59.871Z,2.90
2019-01-09T05:55:47.978Z,2.80
2019-01-09T05:58:36.149Z,2.80
2019-01-09T06:01:24.377Z,2.80
2019-01-09T06:04:04.815Z,2.70
2019-01-09T06:06:45.750Z,2.60
2019-01-09T06:09:26.417Z,2.50
2019-01-09T06:12:06.970Z,2.50
2019-01-09T06:14:48.125Z,2.50
2019-01-09T06:17:17.233Z,2.40
2019-01-09T06:20:06.481Z,2.40
2019-01-09T06:22:54.721Z,2.40
2019-01-09T06:25:42.971Z,2.40
2019-01-09T06:28:31.174Z,2.50
2019-01-09T06:31:19.294Z,2.50
2019-01-09T06:34:07.516Z,2.50
2019-01-09T06:36:55.724Z,2.50
2019-01-09T06:39:43.967Z,2.60
2019-01-09T06:42:52.640Z,2.60
2019-01-09T06:45:40.744Z,2.60
2019-01-09T06:48:28.952Z,2.70
2019-01-09T06:51:17.126Z,2.80
2019-01-09T06:54:05.347Z,2.80
2019-01-09T06:56:53.543Z,2.90
2019-01-09T06:59:41.659Z,2.90
2019-01-09T07:02:29.882Z,2.90
2019-01-09T07:05:10.241Z,2.90
2019-01-09T07:07:39.229Z,2.90
2019-01-09T07:10:27.416Z,2.90
2019-01-09T07:13:15.609Z,2.90
2019-01-09T07:16:03.784Z,2.90
2019-01-09T07:18:51.980Z,2.90
2019-01-09T07:21:45.430Z,2.90
2019-01-09T07:24:30.480Z,2.90
2019-01-09T07:26:59.554Z,2.90
2019-01-09T07:29:47.757Z,2.80
2019-01-09T07:32:36.011Z,2.80
2019-01-09T07:35:24.202Z,2.70
2019-01-09T07:38:12.344Z,2.70
2019-01-09T07:41:00.549Z,2.60
2019-01-09T07:43:48.764Z,2.60
2019-01-09T07:49:30.950Z,2.60
2019-01-09T07:52:19.127Z,2.60
2019-01-09T07:55:07.372Z,2.60
2019-01-09T07:57:36.404Z,2.50
2019-01-09T08:00:24.603Z,2.50
2019-01-09T08:03:12.879Z,2.50
2019-01-09T08:05:56.561Z,2.60
2019-01-09T08:08:39.571Z,2.50
2019-01-09T08:11:11.016Z,2.60
2019-01-09T08:14:02.032Z,2.60
2019-01-09T08:16:50.369Z,2.60
2019-01-09T08:19:38.551Z,2.60
2019-01-09T08:22:27.135Z,2.60
2019-01-09T08:25:16.847Z,2.70
2019-01-09T08:28:05.019Z,2.70
2019-01-09T08:30:53.224Z,2.80
2019-01-09T08:33:41.398Z,3.00
2019-01-09T08:36:29.627Z,3.20
2019-01-09T08:38:58.657Z,3.20
2019-01-09T08:41:46.953Z,3.10
2019-01-09T08:44:35.129Z,3.00
2019-01-09T08:47:23.321Z,3.00
2019-01-09T08:50:11.496Z,3.00
2019-01-09T08:52:59.833Z,3.20
2019-01-09T08:55:48.220Z,3.40
2019-01-09T08:58:36.397Z,3.50
2019-01-09T09:01:24.703Z,3.40
2019-01-09T09:06:40.805Z,3.30
2019-01-09T09:09:21.514Z,3.40
2019-01-09T09:11:50.602Z,3.80
2019-01-09T09:14:38.803Z,4.20
2019-01-09T09:17:26.988Z,4.50
2019-01-09T09:20:15.137Z,4.90
2019-01-09T09:23:03.432Z,5.00
2019-01-09T09:28:45.401Z,5.00
2019-01-09T09:31:33.594Z,5.10
2019-01-09T09:34:21.766Z,5.40
2019-01-09T09:37:09.950Z,5.40
2019-01-09T09:48:35.965Z,5.20
2019-01-09T09:51:24.164Z,4.90
2019-01-09T09:54:12.407Z,4.80
2019-01-09T09:57:00.673Z,4.60
2019-01-09T09:59:48.929Z,4.50
2019-01-09T10:02:37.139Z,4.30
2019-01-09T10:05:06.232Z,4.30
2019-01-09T10:07:46.668Z,4.10
2019-01-09T10:10:28.220Z,4.00
2019-01-09T10:15:50.910Z,3.90
2019-01-09T10:18:39.177Z,3.90
2019-01-09T10:21:27.411Z,3.90
2019-01-09T10:24:15.645Z,3.90
2019-01-09T10:27:03.827Z,3.90
2019-01-09T10:29:52.002Z,3.90
2019-01-09T10:32:40.211Z,3.90
2019-01-09T10:35:28.352Z,3.90
2019-01-09T10:37:57.667Z,3.80
2019-01-09T10:40:45.738Z,3.80
2019-01-09T10:43:33.946Z,3.90
2019-01-09T10:46:22.109Z,3.90
2019-01-09T10:49:10.313Z,3.90
2019-01-09T10:51:58.465Z,3.90
2019-01-09T10:54:46.694Z,3.90
2019-01-09T10:57:34.855Z,4.00
2019-01-09T11:03:18.387Z,4.00
2019-01-09T11:06:06.550Z,3.90
2019-01-09T11:08:47.696Z,4.00
2019-01-09T11:11:28.471Z,4.10
2019-01-09T11:14:09.463Z,4.20
2019-01-09T11:16:50.036Z,4.30
2019-01-09T11:19:19.112Z,4.30
2019-01-09T11:22:07.529Z,4.30
2019-01-09T11:24:55.983Z,4.40
2019-01-09T11:27:44.168Z,4.30
2019-01-09T11:30:32.335Z,4.30
2019-01-09T11:33:20.467Z,4.20
2019-01-09T11:36:08.715Z,4.20
2019-01-09T11:38:57.074Z,4.10
2019-01-09T11:41:26.284Z,4.00
2019-01-09T11:44:14.525Z,4.00
2019-01-09T11:47:02.703Z,3.90
2019-01-09T11:49:50.927Z,3.80
2019-01-09T11:52:39.289Z,3.80
2019-01-09T11:55:27.526Z,3.80
2019-01-09T11:58:15.701Z,3.70
2019-01-09T12:00:44.747Z,3.70
2019-01-09T12:03:32.960Z,3.70
2019-01-09T12:06:21.085Z,3.70
2019-01-09T12:09:04.695Z,3.60
2019-01-09T12:11:44.773Z,3.60
2019-01-09T12:14:26.049Z,3.60
2019-01-09T12:17:06.607Z,3.60
2019-01-09T12:19:47.776Z,3.60
2019-01-09T12:22:28.293Z,3.50
2019-01-09T12:25:09.272Z,3.50
2019-01-09T12:27:50.247Z,3.50
2019-01-09T12:30:30.605Z,3.60
2019-01-09T12:32:59.683Z,3.50
2019-01-09T12:35:47.938Z,3.50
2019-01-09T12:38:36.081Z,3.50
2019-01-09T12:41:24.265Z,3.50
2019-01-09T12:44:12.427Z,3.50
2019-01-09T12:46:41.569Z,3.50
2019-01-09T12:49:29.731Z,3.50
2019-01-09T12:54:52.196Z,3.40
2019-01-09T12:57:40.307Z,3.40
2019-01-09T13:00:31.038Z,3.40
2019-01-09T13:03:00.103Z,3.30
2019-01-09T13:05:48.387Z,3.30
2019-01-09T13:08:29.658Z,3.30
2019-01-09T13:10:58.771Z,3.30
2019-01-09T13:13:47.160Z,3.30
2019-01-09T13:16:35.357Z,3.30
2019-01-09T13:19:23.661Z,3.20
2019-01-09T13:22:11.764Z,3.20
2019-01-09T13:24:59.967Z,3.20
2019-01-09T13:27:48.129Z,3.20
2019-01-09T13:30:36.315Z,3.20
2019-01-09T13:33:24.739Z,3.20
2019-01-09T13:35:53.715Z,3.20
2019-01-09T13:38:41.879Z,3.20
2019-01-09T13:41:30.054Z,3.20
2019-01-09T13:44:18.278Z,3.10
2019-01-09T13:47:06.569Z,3.10
2019-01-09T13:49:54.656Z,3.10
2019-01-09T13:52:42.825Z,3.10
2019-01-09T13:55:31.115Z,3.10
2019-01-09T13:58:00.158Z,3.10
2019-01-09T14:03:36.360Z,3.00
2019-01-09T14:06:24.743Z,3.00
2019-01-09T14:09:12.992Z,3.00
2019-01-09T14:11:54.235Z,3.00
2019-01-09T14:14:23.317Z,3.00
2019-01-09T14:17:11.473Z,2.90
2019-01-09T14:19:59.638Z,2.90
2019-01-09T14:22:47.797Z,2.90
2019-01-09T14:25:35.996Z,2.90
2019-01-09T14:28:24.222Z,2.90
2019-01-09T14:30:53.276Z,2.90
2019-01-09T14:33:41.529Z,2.90
2019-01-09T14:36:29.847Z,2.90
2019-01-09T14:39:18.080Z,2.90
2019-01-09T14:42:06.259Z,2.80
2019-01-09T14:44:54.459Z,2.80
2019-01-09T14:47:46.917Z,2.80
2019-01-09T14:50:35.082Z,2.80
2019-01-09T14:53:23.263Z,2.70
2019-01-09T14:56:11.452Z,2.70
2019-01-09T14:58:59.595Z,2.70
2019-01-09T15:04:22.656Z,2.70
2019-01-09T15:07:10.924Z,2.70
2019-01-09T15:09:56.613Z,2.70
2019-01-09T15:12:34.489Z,2.70
2019-01-09T15:15:03.531Z,2.70
2019-01-09T15:17:51.793Z,2.60
2019-01-09T15:20:39.997Z,2.70
2019-01-09T15:23:28.186Z,2.70
2019-01-09T15:25:57.197Z,2.60
2019-01-09T15:28:45.373Z,2.60
2019-01-09T15:31:33.611Z,2.60
2019-01-09T15:34:22.243Z,2.60
2019-01-09T15:37:10.415Z,2.60
2019-01-09T15:40:05.648Z,2.60
2019-01-09T15:42:50.824Z,2.60
2019-01-09T15:45:39.005Z,2.60
2019-01-09T15:48:27.255Z,2.60
2019-01-09T15:50:56.354Z,2.60
2019-01-09T15:53:44.522Z,2.60
2019-01-09T15:56:32.740Z,2.60
2019-01-09T15:59:20.930Z,2.60
2019-01-09T16:05:03.130Z,2.60
2019-01-09T16:07:51.300Z,2.60
2019-01-09T16:13:14.550Z,2.50
2019-01-09T16:15:55.449Z,2.60
2019-01-09T16:18:36.469Z,2.50
2019-01-09T16:21:17.094Z,2.50
2019-01-09T16:23:58.213Z,2.50
2019-01-09T16:26:27.331Z,2.50
2019-01-09T16:29:15.525Z,2.50
2019-01-09T16:32:03.712Z,2.50
2019-01-09T16:34:51.909Z,2.50
2019-01-09T16:37:40.150Z,2.50
2019-01-09T16:40:28.359Z,2.50
2019-01-09T16:46:10.617Z,2.50
2019-01-09T16:48:58.826Z,2.50
2019-01-09T16:51:47.029Z,2.50
2019-01-09T16:54:36.929Z,2.50
2019-01-09T17:00:20.517Z,2.60
2019-01-09T17:03:08.778Z,2.50
2019-01-09T17:05:58.663Z,2.60
2019-01-09T17:08:46.967Z,2.60
2019-01-09T17:11:27.780Z,2.60
2019-01-09T17:14:08.468Z,2.50
2019-01-09T17:16:49.163Z,2.50
2019-01-09T17:19:30.105Z,2.50
2019-01-09T17:21:59.167Z,2.50
2019-01-09T17:24:47.389Z,2.50
2019-01-09T17:27:35.599Z,2.50
2019-01-09T17:30:24.708Z,2.50
2019-01-09T17:33:12.868Z,2.50
2019-01-09T17:36:01.055Z,2.40
2019-01-09T17:38:49.155Z,2.40
2019-01-09T17:41:37.370Z,2.40
2019-01-09T17:44:06.590Z,2.40
2019-01-09T17:46:54.814Z,2.40
2019-01-09T17:49:43.081Z,2.40
2019-01-09T17:52:12.499Z,2.40
2019-01-09T17:55:00.649Z,2.40
2019-01-09T17:57:48.827Z,2.40
2019-01-09T18:03:47.089Z,2.40
2019-01-09T18:06:35.307Z,2.40
2019-01-09T18:09:23.516Z,2.40
2019-01-09T18:11:52.782Z,2.40
2019-01-09T18:14:40.974Z,2.40
2019-01-09T18:17:29.081Z,2.40
2019-01-09T18:20:17.480Z,2.40
2019-01-09T18:23:05.694Z,2.40
2019-01-09T18:25:53.929Z,2.30
2019-01-09T18:32:08.509Z,2.40
2019-01-09T18:35:16.045Z,2.40
2019-01-09T18:38:15.483Z,2.40
2019-01-09T18:41:18.910Z,2.40
2019-01-09T18:44:26.260Z,2.30
2019-01-09T18:47:40.554Z,2.40
2019-01-09T18:50:48.205Z,2.30
2019-01-09T18:53:40.904Z,2.30
2019-01-09T18:56:29.121Z,2.40
2019-01-09T18:59:17.439Z,2.30
2019-01-09T19:04:40.961Z,2.30
2019-01-09T19:07:29.199Z,2.30
2019-01-09T19:10:09.680Z,2.30
2019-01-09T19:12:50.833Z,2.30
2019-01-09T19:15:20.002Z,2.30
2019-01-09T19:18:08.338Z,2.30
2019-01-09T19:23:52.182Z,2.30
2019-01-09T19:26:40.470Z,2.30
2019-01-09T19:29:28.638Z,2.30
2019-01-09T19:32:16.820Z,2.30
2019-01-09T19:35:05.154Z,2.30
2019-01-09T19:37:53.755Z,2.30
2019-01-09T19:40:42.010Z,2.30
2019-01-09T19:46:37.546Z,2.40
2019-01-09T19:49:25.699Z,2.40
2019-01-09T19:55:07.882Z,2.40
2019-01-09T19:57:56.196Z,2.40
2019-01-09T20:03:51.668Z,2.40
2019-01-09T20:09:47.005Z,2.40
2019-01-09T20:15:10.499Z,2.40
2019-01-09T20:17:39.611Z,2.40
2019-01-09T20:20:28.364Z,2.40
2019-01-09T20:23:16.583Z,2.40
2019-01-09T20:26:04.787Z,2.40
2019-01-09T20:28:53.114Z,2.40
2019-01-09T20:34:15.780Z,2.40
2019-01-09T20:37:04.064Z,2.40
2019-01-09T20:39:52.600Z,2.40
2019-01-09T20:42:41.192Z,2.30
2019-01-09T20:45:29.526Z,2.40
2019-01-09T20:48:17.729Z,2.40
2019-01-09T20:51:06.049Z,2.40
2019-01-09T20:53:54.281Z,2.40
2019-01-09T20:56:42.484Z,2.40
2019-01-09T20:59:30.681Z,2.40
2019-01-09T21:02:18.990Z,2.40
2019-01-09T21:05:08.993Z,2.40
2019-01-09T21:07:57.410Z,2.30
2019-01-09T21:16:38.684Z,2.50
2019-01-09T21:19:19.548Z,2.30
2019-01-09T21:22:00.347Z,2.30
2019-01-09T21:24:29.420Z,2.30
2019-01-09T21:26:58.585Z,2.30
2019-01-09T21:29:27.663Z,2.20
2019-01-09T21:31:56.723Z,2.20
2019-01-09T21:34:25.771Z,2.20
2019-01-09T21:36:54.833Z,2.20
2019-01-09T21:39:23.793Z,2.20
2019-01-09T21:42:12.007Z,2.20
2019-01-09T21:45:00.214Z,2.20
2019-01-09T21:47:48.623Z,2.20
2019-01-09T21:50:36.847Z,2.20
2019-01-09T21:56:13.041Z,2.20
2019-01-09T21:59:01.518Z,2.20
2019-01-09T22:01:32.930Z,2.10
2019-01-09T22:04:21.362Z,2.10
2019-01-09T22:07:09.595Z,2.10
2019-01-09T22:12:58.232Z,2.10
2019-01-09T22:15:27.405Z,2.10
2019-01-09T22:18:15.550Z,2.10
2019-01-09T22:21:03.749Z,2.10
2019-01-09T22:23:51.914Z,2.10
2019-01-09T22:26:40.092Z,2.10
2019-01-09T22:29:28.260Z,2.10
2019-01-09T22:31:57.338Z,2.10
2019-01-09T22:34:45.558Z,2.00
2019-01-09T22:37:33.919Z,2.00
2019-01-09T22:40:22.410Z,2.00
2019-01-09T22:43:10.645Z,2.00
2019-01-09T22:45:58.877Z,2.00
2019-01-09T22:48:27.872Z,2.00
2019-01-09T22:51:16.213Z,2.00
2019-01-09T22:54:04.439Z,2.00
2019-01-09T22:56:52.805Z,2.00
2019-01-09T22:59:40.966Z,2.00
2019-01-09T23:02:29.668Z,2.00
2019-01-09T23:05:17.936Z,2.00
2019-01-09T23:08:06.345Z,2.00
2019-01-09T23:10:57.260Z,2.00
2019-01-09T23:13:36.898Z,2.00
2019-01-09T23:16:06.340Z,2.00
2019-01-09T23:18:55.009Z,1.90
2019-01-09T23:21:43.219Z,1.90
2019-01-09T23:24:31.402Z,1.90
2019-01-09T23:27:19.533Z,1.80
2019-01-09T23:30:28.716Z,1.80
2019-01-09T23:33:17.095Z,1.80
2019-01-09T23:36:05.503Z,1.80
2019-01-09T23:38:34.551Z,1.80
2019-01-09T23:41:03.653Z,1.70
2019-01-09T23:43:51.913Z,1.70
2019-01-09T23:46:40.105Z,1.70
2019-01-09T23:49:28.265Z,1.60
2019-01-09T23:52:16.425Z,1.50
2019-01-09T23:55:05.013Z,1.50
2019-01-09T23:57:53.097Z,1.40
